Time;durP1;ratioP1;P1;durP2;ratioP2;P2;SDS_P1;SDS_P2;PMS_P1;PMS_P2;Temp;Humidity;BMP_temperature;BMP_pressure;BME280_temperature;BME280_humidity;BME280_pressure;Samples;Min_cycle;Max_cycle;Signal;HPM_P1;HPM_P2
2021/01/09 00:00:45;;;;;;;;;;;3.70;73.10;;;;;;4915385;28;20390;-45
2021/01/09 00:03:12;;;;;;;;;;;3.70;73.30;;;;;;4915682;28;20413;-46
2021/01/09 00:05:38;;;;;;;;;;;3.70;73.40;;;;;;4912694;28;19930;-46
2021/01/09 00:08:05;;;;;;;;;;;3.70;73.30;;;;;;4915587;28;20040;-43
2021/01/09 00:10:31;;;;;;;;;;;3.70;73.30;;;;;;4904935;28;20310;-43
2021/01/09 00:12:57;;;;;;;;;;;3.70;73.10;;;;;;4914463;28;20285;-43
2021/01/09 00:15:23;;;;;;;;;;;3.70;73.10;;;;;;4908828;28;19930;-45
2021/01/09 00:17:50;;;;;;;;;;;3.70;72.80;;;;;;4912068;28;21911;-44
2021/01/09 00:20:17;;;;;;;;;;;3.70;72.90;;;;;;4912978;28;19935;-46
2021/01/09 00:22:43;;;;;;;;;;;3.70;73.00;;;;;;4917206;28;19966;-44
2021/01/09 00:25:10;;;;;;;;;;;3.70;73.00;;;;;;4919559;28;19926;-44
2021/01/09 00:27:36;;;;;;;;;;;3.70;72.90;;;;;;4918777;28;19926;-45
2021/01/09 00:30:03;;;;;;;;;;;3.70;72.90;;;;;;4913153;28;19941;-43
2021/01/09 00:32:29;;;;;;;;;;;3.70;73.10;;;;;;4916601;28;19933;-44
2021/01/09 00:34:56;;;;;;;;;;;3.70;73.10;;;;;;4907753;28;19926;-42
2021/01/09 00:37:25;;;;;;;;;;;3.70;73.10;;;;;;4914679;28;20397;-45
2021/01/09 00:39:52;;;;;;;;;;;3.70;73.00;;;;;;4914946;28;20274;-46
2021/01/09 00:42:18;;;;;;;;;;;3.70;73.00;;;;;;4909886;28;21743;-43
2021/01/09 00:44:44;;;;;;;;;;;3.70;73.10;;;;;;4916301;28;19937;-45
2021/01/09 00:47:13;;;;;;;;;;;3.70;72.80;;;;;;4915806;28;19933;-44
2021/01/09 00:49:39;;;;;;;;;;;3.70;73.10;;;;;;4907081;28;20020;-45
2021/01/09 00:52:05;;;;;;;;;;;3.70;72.90;;;;;;4914775;28;19941;-46
2021/01/09 00:54:32;;;;;;;;;;;3.70;72.90;;;;;;4915961;28;19930;-43
2021/01/09 00:56:59;;;;;;;;;;;3.70;72.90;;;;;;4919308;28;19926;-45
2021/01/09 00:59:26;;;;;;;;;;;3.70;73.00;;;;;;4914170;28;19933;-45
2021/01/09 01:01:53;;;;;;;;;;;3.70;72.90;;;;;;4902975;28;19926;-45
2021/01/09 01:04:19;;;;;;;;;;;3.70;72.80;;;;;;4911331;28;20009;-42
2021/01/09 01:06:46;;;;;;;;;;;3.70;73.10;;;;;;4913055;28;19934;-44
2021/01/09 01:09:12;;;;;;;;;;;3.70;73.50;;;;;;4912533;28;23788;-46
2021/01/09 01:11:39;;;;;;;;;;;3.70;73.50;;;;;;4910203;28;19926;-46
2021/01/09 01:14:06;;;;;;;;;;;3.70;73.60;;;;;;4904237;28;19932;-45
2021/01/09 01:16:32;;;;;;;;;;;3.70;73.60;;;;;;4913691;28;20335;-45
2021/01/09 01:19:01;;;;;;;;;;;3.70;73.50;;;;;;4900489;28;20017;-44
2021/01/09 01:21:27;;;;;;;;;;;3.60;73.50;;;;;;4921162;28;20285;-46
2021/01/09 01:23:53;;;;;;;;;;;3.60;73.60;;;;;;4908861;28;19930;-45
2021/01/09 01:26:20;;;;;;;;;;;3.50;73.60;;;;;;4917414;28;19933;-46
2021/01/09 01:28:46;;;;;;;;;;;3.50;73.70;;;;;;4911349;28;19934;-42
2021/01/09 01:31:12;;;;;;;;;;;3.60;73.70;;;;;;4909365;28;19985;-45
2021/01/09 01:33:39;;;;;;;;;;;3.60;73.60;;;;;;4910082;28;19926;-45
2021/01/09 01:36:07;;;;;;;;;;;3.60;73.50;;;;;;4915812;28;19933;-45
2021/01/09 01:38:34;;;;;;;;;;;3.60;73.50;;;;;;4916175;28;19952;-44
2021/01/09 01:41:02;;;;;;;;;;;3.60;73.40;;;;;;4914798;28;22057;-44
2021/01/09 01:43:29;;;;;;;;;;;3.60;73.60;;;;;;4911747;28;19930;-44
2021/01/09 01:45:57;;;;;;;;;;;3.60;73.70;;;;;;4917649;28;19960;-46
2021/01/09 01:48:24;;;;;;;;;;;3.60;73.50;;;;;;4910348;28;19934;-45
2021/01/09 01:50:51;;;;;;;;;;;3.60;73.30;;;;;;4920001;28;19946;-45
2021/01/09 01:53:17;;;;;;;;;;;3.60;73.50;;;;;;4912234;28;20306;-45
2021/01/09 01:55:44;;;;;;;;;;;3.60;73.50;;;;;;4919031;28;19953;-44
2021/01/09 01:58:10;;;;;;;;;;;3.60;73.60;;;;;;4914920;28;20386;-45
2021/01/09 02:00:37;;;;;;;;;;;3.60;73.40;;;;;;4907899;28;20076;-46
2021/01/09 02:03:03;;;;;;;;;;;3.60;73.50;;;;;;4910259;28;19929;-44
2021/01/09 02:05:34;;;;;;;;;;;3.60;73.50;;;;;;4918241;28;19937;-45
2021/01/09 02:08:02;;;;;;;;;;;3.60;73.60;;;;;;4908856;28;20291;-46
2021/01/09 02:10:28;;;;;;;;;;;3.60;73.60;;;;;;4910779;28;19933;-46
2021/01/09 02:12:59;;;;;;;;;;;3.60;73.70;;;;;;4916769;28;19933;-45
2021/01/09 02:15:26;;;;;;;;;;;3.50;73.80;;;;;;4910369;28;20020;-45
2021/01/09 02:17:52;;;;;;;;;;;3.50;73.90;;;;;;4913874;28;19934;-44
2021/01/09 02:20:21;;;;;;;;;;;3.50;74.10;;;;;;4914007;28;19933;-46
2021/01/09 02:22:47;;;;;;;;;;;3.50;74.10;;;;;;4911795;28;19933;-45
2021/01/09 02:25:13;;;;;;;;;;;3.50;74.00;;;;;;4913335;28;19930;-44
2021/01/09 02:27:40;;;;;;;;;;;3.50;73.90;;;;;;4911697;28;20739;-43
2021/01/09 02:30:11;;;;;;;;;;;3.50;73.90;;;;;;4907783;28;20021;-43
2021/01/09 02:32:44;;;;;;;;;;;3.50;73.90;;;;;;4908304;28;19934;-45
2021/01/09 02:35:13;;;;;;;;;;;3.50;73.90;;;;;;4912361;28;21218;-45
2021/01/09 02:37:39;;;;;;;;;;;3.50;73.80;;;;;;4910275;28;20624;-44
2021/01/09 02:40:07;;;;;;;;;;;3.50;73.90;;;;;;4907259;28;20073;-43
2021/01/09 02:42:33;;;;;;;;;;;3.50;73.90;;;;;;4910816;28;19930;-45
2021/01/09 02:45:00;;;;;;;;;;;3.50;73.90;;;;;;4912796;28;19968;-46
2021/01/09 02:47:26;;;;;;;;;;;3.50;73.90;;;;;;4912317;28;19934;-43
2021/01/09 02:49:53;;;;;;;;;;;3.50;74.10;;;;;;4902040;28;20044;-46
2021/01/09 02:52:19;;;;;;;;;;;3.50;74.30;;;;;;4912112;28;19926;-45
2021/01/09 02:54:45;;;;;;;;;;;3.50;74.20;;;;;;4914683;28;20371;-45
2021/01/09 02:57:11;;;;;;;;;;;3.60;73.90;;;;;;4911092;28;19949;-46
2021/01/09 02:59:38;;;;;;;;;;;3.60;74.10;;;;;;4909007;28;20272;-45
2021/01/09 03:02:04;;;;;;;;;;;3.60;74.10;;;;;;4916933;28;19926;-46
2021/01/09 03:04:30;;;;;;;;;;;3.60;73.90;;;;;;4907381;28;20474;-43
2021/01/09 03:06:57;;;;;;;;;;;3.60;73.80;;;;;;4912088;28;19938;-45
2021/01/09 03:09:24;;;;;;;;;;;3.70;73.80;;;;;;4914540;28;19930;-44
2021/01/09 03:11:50;;;;;;;;;;;3.60;73.90;;;;;;4914304;28;19933;-44
2021/01/09 03:14:16;;;;;;;;;;;3.70;73.90;;;;;;4906549;28;20045;-44
2021/01/09 03:16:42;;;;;;;;;;;3.70;73.90;;;;;;4902190;28;21353;-45
2021/01/09 03:19:09;;;;;;;;;;;3.70;73.80;;;;;;4907722;28;19926;-45
2021/01/09 03:21:35;;;;;;;;;;;3.70;73.70;;;;;;4909169;28;19934;-45
2021/01/09 03:24:02;;;;;;;;;;;3.70;73.80;;;;;;4923040;28;20013;-46
2021/01/09 03:26:30;;;;;;;;;;;3.70;73.90;;;;;;4912099;28;19948;-44
2021/01/09 03:28:57;;;;;;;;;;;3.70;73.80;;;;;;4913245;28;20342;-46
2021/01/09 03:31:24;;;;;;;;;;;3.70;73.60;;;;;;4916580;28;20503;-45
2021/01/09 03:33:53;;;;;;;;;;;3.70;73.50;;;;;;4907946;28;19930;-44
2021/01/09 03:36:19;;;;;;;;;;;3.70;73.50;;;;;;4906689;28;21748;-45
2021/01/09 03:38:45;;;;;;;;;;;3.70;73.50;;;;;;4908654;28;20024;-46
2021/01/09 03:41:11;;;;;;;;;;;3.70;73.40;;;;;;4923831;28;19926;-43
2021/01/09 03:43:40;;;;;;;;;;;3.70;73.30;;;;;;4911335;28;19926;-46
2021/01/09 03:46:07;;;;;;;;;;;3.70;73.10;;;;;;4911367;28;20509;-45
2021/01/09 03:48:34;;;;;;;;;;;3.60;73.40;;;;;;4908300;28;19992;-45
2021/01/09 03:51:01;;;;;;;;;;;3.70;73.30;;;;;;4908900;28;20024;-42
2021/01/09 03:53:28;;;;;;;;;;;3.70;73.30;;;;;;4916005;28;19937;-45
2021/01/09 03:55:54;;;;;;;;;;;3.70;73.40;;;;;;4909116;28;19930;-46
2021/01/09 03:58:23;;;;;;;;;;;3.70;73.50;;;;;;4913782;28;19961;-43
2021/01/09 04:00:49;;;;;;;;;;;3.60;73.60;;;;;;4892566;28;19977;-46
2021/01/09 04:03:16;;;;;;;;;;;3.70;73.60;;;;;;4911129;28;20004;-44
2021/01/09 04:05:42;;;;;;;;;;;3.70;73.40;;;;;;4906543;28;19940;-45
2021/01/09 04:08:09;;;;;;;;;;;3.70;73.60;;;;;;4910863;28;19934;-44
2021/01/09 04:10:35;;;;;;;;;;;3.70;73.60;;;;;;4909401;28;19930;-45
2021/01/09 04:13:02;;;;;;;;;;;3.60;73.70;;;;;;4917083;28;19934;-46
2021/01/09 04:15:29;;;;;;;;;;;3.70;73.60;;;;;;4912192;28;20444;-45
2021/01/09 04:17:55;;;;;;;;;;;3.60;73.50;;;;;;4913187;28;19934;-45
2021/01/09 04:20:21;;;;;;;;;;;3.70;73.80;;;;;;4908790;28;20298;-44
2021/01/09 04:22:47;;;;;;;;;;;3.70;73.90;;;;;;4909541;28;19930;-46
2021/01/09 04:25:13;;;;;;;;;;;3.70;73.90;;;;;;4910216;28;19952;-46
2021/01/09 04:27:39;;;;;;;;;;;3.70;73.90;;;;;;4907944;28;19933;-44
2021/01/09 04:30:06;;;;;;;;;;;3.70;73.90;;;;;;4916956;28;19949;-45
2021/01/09 04:32:33;;;;;;;;;;;3.70;73.90;;;;;;4910379;28;19977;-46
2021/01/09 04:35:00;;;;;;;;;;;3.70;73.80;;;;;;4922845;28;19934;-44
2021/01/09 04:37:26;;;;;;;;;;;3.70;73.80;;;;;;4903959;28;19930;-44
2021/01/09 04:39:52;;;;;;;;;;;3.70;73.80;;;;;;4915243;28;19926;-43
2021/01/09 04:42:22;;;;;;;;;;;3.70;73.80;;;;;;4909545;28;19933;-44
2021/01/09 04:44:48;;;;;;;;;;;3.70;74.00;;;;;;4913069;28;19937;-43
2021/01/09 04:47:14;;;;;;;;;;;3.70;74.00;;;;;;4911104;28;20390;-47
2021/01/09 04:49:41;;;;;;;;;;;3.70;73.90;;;;;;4915217;28;20433;-44
2021/01/09 04:52:09;;;;;;;;;;;3.70;74.00;;;;;;4913469;28;19930;-46
2021/01/09 04:54:35;;;;;;;;;;;3.80;74.10;;;;;;4914461;28;19930;-44
2021/01/09 04:57:02;;;;;;;;;;;3.80;74.00;;;;;;4914080;28;23349;-45
2021/01/09 04:59:28;;;;;;;;;;;3.80;74.00;;;;;;4912408;28;20021;-44
2021/01/09 05:01:56;;;;;;;;;;;3.80;74.10;;;;;;4918802;28;19958;-47
2021/01/09 05:04:23;;;;;;;;;;;3.80;74.30;;;;;;4912661;28;19926;-43
2021/01/09 05:06:49;;;;;;;;;;;3.80;74.30;;;;;;4912851;28;20410;-44
2021/01/09 05:09:16;;;;;;;;;;;3.80;74.40;;;;;;4915733;28;19930;-46
2021/01/09 05:11:44;;;;;;;;;;;3.80;74.50;;;;;;4917703;28;19932;-45
2021/01/09 05:14:10;;;;;;;;;;;3.80;74.20;;;;;;4912569;28;19927;-45
2021/01/09 05:16:37;;;;;;;;;;;3.80;74.20;;;;;;4914383;28;20293;-45
2021/01/09 05:19:04;;;;;;;;;;;3.80;74.20;;;;;;4911671;28;19982;-45
2021/01/09 05:21:34;;;;;;;;;;;3.80;74.40;;;;;;4934529;28;20374;-44
2021/01/09 05:24:08;;;;;;;;;;;3.80;74.30;;;;;;4906483;28;19941;-46
2021/01/09 05:26:37;;;;;;;;;;;3.80;74.30;;;;;;4914993;28;19926;-46
2021/01/09 05:29:05;;;;;;;;;;;3.80;74.40;;;;;;4915790;28;19930;-47
2021/01/09 05:31:35;;;;;;;;;;;3.80;74.40;;;;;;4912035;28;19937;-42
2021/01/09 05:34:03;;;;;;;;;;;3.80;74.40;;;;;;4909022;28;20043;-44
2021/01/09 05:36:29;;;;;;;;;;;3.80;74.40;;;;;;4914588;28;20085;-46
2021/01/09 05:38:55;;;;;;;;;;;3.80;74.30;;;;;;4917487;28;20377;-46
2021/01/09 05:41:23;;;;;;;;;;;3.80;73.90;;;;;;4915473;28;19981;-44
2021/01/09 05:44:03;;;;;;;;;;;3.80;73.60;;;;;;4911134;28;19930;-45
2021/01/09 05:46:30;;;;;;;;;;;3.80;73.30;;;;;;4912691;28;19926;-42
2021/01/09 05:48:57;;;;;;;;;;;3.80;73.70;;;;;;4914829;28;19930;-44
2021/01/09 05:51:29;;;;;;;;;;;3.80;73.40;;;;;;4910004;28;19934;-44
2021/01/09 05:53:55;;;;;;;;;;;3.80;73.70;;;;;;4905489;28;20567;-46
2021/01/09 05:56:23;;;;;;;;;;;3.80;73.60;;;;;;4925825;28;19926;-44
2021/01/09 05:58:53;;;;;;;;;;;3.80;73.60;;;;;;4917405;28;19930;-46
2021/01/09 06:01:23;;;;;;;;;;;3.80;73.70;;;;;;4913014;28;19937;-46
2021/01/09 06:04:03;;;;;;;;;;;3.80;73.60;;;;;;4912943;28;20044;-45
2021/01/09 06:06:29;;;;;;;;;;;3.90;73.50;;;;;;4912609;28;19930;-44
2021/01/09 06:09:00;;;;;;;;;;;3.90;73.20;;;;;;4910649;28;19934;-46
2021/01/09 06:11:29;;;;;;;;;;;3.90;73.10;;;;;;4912389;28;19934;-46
2021/01/09 06:14:00;;;;;;;;;;;3.90;73.10;;;;;;4911908;28;20487;-46
2021/01/09 06:16:27;;;;;;;;;;;3.90;73.10;;;;;;4907129;28;19938;-46
2021/01/09 06:18:56;;;;;;;;;;;3.90;73.30;;;;;;4909439;28;19933;-45
2021/01/09 06:21:24;;;;;;;;;;;3.80;73.10;;;;;;4904500;28;20042;-46
2021/01/09 06:23:54;;;;;;;;;;;3.80;72.80;;;;;;4914782;28;20378;-46
2021/01/09 06:26:21;;;;;;;;;;;3.80;72.70;;;;;;4907511;28;19930;-44
2021/01/09 06:28:50;;;;;;;;;;;3.80;72.70;;;;;;4912445;28;19976;-43
2021/01/09 06:31:20;;;;;;;;;;;3.80;72.70;;;;;;4910157;28;20920;-45
2021/01/09 06:33:48;;;;;;;;;;;3.80;72.50;;;;;;4910345;28;20025;-46
2021/01/09 06:36:19;;;;;;;;;;;3.90;72.50;;;;;;4911916;28;19984;-45
2021/01/09 06:38:54;;;;;;;;;;;3.80;72.60;;;;;;4906620;28;20001;-44
2021/01/09 06:41:22;;;;;;;;;;;3.80;72.80;;;;;;4912308;28;19930;-45
2021/01/09 06:43:52;;;;;;;;;;;3.80;72.80;;;;;;4907667;28;19934;-43
2021/01/09 06:46:26;;;;;;;;;;;3.80;72.60;;;;;;4910452;28;21351;-44
2021/01/09 06:48:52;;;;;;;;;;;3.90;72.30;;;;;;4912053;28;19937;-44
2021/01/09 06:51:42;;;;;;;;;;;3.80;72.50;;;;;;4905765;28;23592;-45
2021/01/09 06:54:14;;;;;;;;;;;3.90;72.60;;;;;;4901088;28;19940;-44
2021/01/09 06:56:45;;;;;;;;;;;3.80;72.70;;;;;;4908204;28;20282;-42
2021/01/09 06:59:47;;;;;;;;;;;3.90;72.80;;;;;;4922006;28;19930;-43
2021/01/09 07:02:21;;;;;;;;;;;3.90;72.50;;;;;;4868725;28;19942;-46
2021/01/09 07:04:54;;;;;;;;;;;3.90;72.50;;;;;;4902019;28;20287;-44
2021/01/09 07:07:31;;;;;;;;;;;3.90;72.70;;;;;;4912119;28;20379;-46
2021/01/09 07:10:02;;;;;;;;;;;3.90;72.80;;;;;;4913030;28;19938;-44
2021/01/09 07:12:30;;;;;;;;;;;3.90;72.30;;;;;;4909937;28;19965;-46
2021/01/09 07:15:06;;;;;;;;;;;3.90;72.30;;;;;;4913042;28;19941;-45
2021/01/09 07:17:36;;;;;;;;;;;3.90;72.60;;;;;;4911957;28;19934;-45
2021/01/09 07:20:03;;;;;;;;;;;3.90;72.60;;;;;;4912101;28;19926;-44
2021/01/09 07:22:32;;;;;;;;;;;3.90;72.70;;;;;;4910598;28;20540;-43
2021/01/09 07:25:00;;;;;;;;;;;3.90;72.40;;;;;;4908018;28;19938;-44
2021/01/09 07:27:53;;;;;;;;;;;3.80;72.70;;;;;;4912712;28;19926;-45
2021/01/09 07:30:20;;;;;;;;;;;3.80;73.00;;;;;;4915172;28;19932;-44
2021/01/09 07:32:51;;;;;;;;;;;3.80;73.10;;;;;;4908815;28;19945;-43
2021/01/09 07:35:24;;;;;;;;;;;3.80;73.10;;;;;;4913569;28;20414;-43
2021/01/09 07:37:51;;;;;;;;;;;3.80;73.10;;;;;;4903831;28;19933;-44
2021/01/09 07:40:18;;;;;;;;;;;3.80;73.10;;;;;;4904552;28;19934;-44
2021/01/09 07:42:45;;;;;;;;;;;3.80;73.10;;;;;;4898709;28;19937;-44
2021/01/09 07:45:15;;;;;;;;;;;3.80;73.20;;;;;;4914868;28;19938;-45
2021/01/09 07:47:41;;;;;;;;;;;3.80;73.30;;;;;;4904289;28;19934;-45
2021/01/09 07:50:09;;;;;;;;;;;3.80;73.40;;;;;;4911249;28;20326;-44
2021/01/09 07:52:36;;;;;;;;;;;3.80;73.50;;;;;;4908597;28;19937;-42
2021/01/09 07:55:04;;;;;;;;;;;3.80;73.60;;;;;;4913422;28;19949;-43
2021/01/09 07:57:30;;;;;;;;;;;3.80;73.70;;;;;;4909483;28;19930;-45
2021/01/09 07:59:56;;;;;;;;;;;3.80;73.90;;;;;;4913907;28;20887;-43
2021/01/09 08:02:23;;;;;;;;;;;3.80;74.00;;;;;;4903749;28;19945;-46
2021/01/09 08:04:50;;;;;;;;;;;3.80;74.00;;;;;;4908013;28;19929;-43
2021/01/09 08:07:16;;;;;;;;;;;3.80;74.20;;;;;;4921489;28;20035;-46
2021/01/09 08:09:45;;;;;;;;;;;3.80;74.30;;;;;;4906725;28;19944;-46
2021/01/09 08:12:11;;;;;;;;;;;3.80;74.30;;;;;;4906527;28;19938;-44
2021/01/09 08:14:37;;;;;;;;;;;3.80;74.30;;;;;;4916467;28;19926;-45
2021/01/09 08:17:08;;;;;;;;;;;3.80;74.30;;;;;;4914534;28;19926;-47
2021/01/09 08:19:34;;;;;;;;;;;3.80;74.30;;;;;;4912855;28;20398;-45
2021/01/09 08:22:02;;;;;;;;;;;3.80;74.40;;;;;;4907895;28;20945;-46
2021/01/09 08:24:31;;;;;;;;;;;3.80;74.40;;;;;;4909681;28;19934;-43
2021/01/09 08:26:58;;;;;;;;;;;3.80;74.50;;;;;;4910582;28;19926;-43
2021/01/09 08:29:24;;;;;;;;;;;3.90;74.50;;;;;;4919773;28;20595;-44
2021/01/09 08:31:51;;;;;;;;;;;3.90;74.50;;;;;;4913095;28;19937;-44
2021/01/09 08:34:18;;;;;;;;;;;3.90;74.50;;;;;;4908549;28;19988;-44
2021/01/09 08:36:44;;;;;;;;;;;3.90;74.60;;;;;;4914003;28;19983;-44
2021/01/09 08:39:11;;;;;;;;;;;3.90;74.50;;;;;;4920159;28;19936;-46
2021/01/09 08:41:41;;;;;;;;;;;3.90;74.60;;;;;;4909733;28;19934;-43
2021/01/09 08:44:08;;;;;;;;;;;3.90;74.60;;;;;;4913197;28;20374;-44
2021/01/09 08:46:38;;;;;;;;;;;4.00;74.40;;;;;;4910447;28;20159;-45
2021/01/09 08:49:05;;;;;;;;;;;4.00;74.20;;;;;;4912306;28;21735;-43
2021/01/09 08:51:32;;;;;;;;;;;4.00;74.10;;;;;;4914682;28;19950;-45
2021/01/09 08:54:01;;;;;;;;;;;4.00;74.10;;;;;;4919010;28;19926;-45
2021/01/09 08:56:28;;;;;;;;;;;4.00;74.10;;;;;;4916517;28;19926;-46
2021/01/09 08:58:59;;;;;;;;;;;4.00;74.00;;;;;;4913412;28;19938;-47
2021/01/09 09:01:29;;;;;;;;;;;4.00;74.00;;;;;;4912129;28;19981;-46
2021/01/09 09:03:59;;;;;;;;;;;4.00;73.90;;;;;;4912246;28;19938;-46
2021/01/09 09:06:27;;;;;;;;;;;4.10;73.80;;;;;;4912914;28;20039;-45
2021/01/09 09:08:54;;;;;;;;;;;4.10;73.80;;;;;;4912861;28;19930;-46
2021/01/09 09:11:24;;;;;;;;;;;4.10;73.30;;;;;;4905331;28;19930;-44
2021/01/09 09:14:07;;;;;;;;;;;4.10;73.40;;;;;;4912441;28;20382;-46
2021/01/09 09:16:36;;;;;;;;;;;4.20;72.90;;;;;;4912095;28;19944;-44
2021/01/09 09:19:18;;;;;;;;;;;4.20;72.90;;;;;;4911849;28;19941;-44
2021/01/09 09:21:45;;;;;;;;;;;4.20;73.00;;;;;;4914537;28;19969;-45
2021/01/09 09:24:12;;;;;;;;;;;4.30;72.90;;;;;;4904617;28;20274;-45
2021/01/09 09:26:39;;;;;;;;;;;4.30;72.80;;;;;;4926340;28;20290;-47
2021/01/09 09:29:05;;;;;;;;;;;4.30;72.70;;;;;;4914227;28;19976;-45
2021/01/09 09:31:33;;;;;;;;;;;4.40;71.90;;;;;;4909813;28;21535;-45
2021/01/09 09:34:13;;;;;;;;;;;4.40;71.90;;;;;;4910983;28;19926;-46
2021/01/09 09:36:51;;;;;;;;;;;4.40;71.90;;;;;;4909535;28;19934;-44
2021/01/09 09:39:18;;;;;;;;;;;4.40;71.60;;;;;;4914090;28;19933;-45
2021/01/09 09:41:55;;;;;;;;;;;4.40;71.70;;;;;;4912372;28;20021;-44
2021/01/09 09:44:32;;;;;;;;;;;4.50;71.90;;;;;;4911975;28;20009;-44
2021/01/09 09:46:59;;;;;;;;;;;4.50;71.60;;;;;;4917857;28;19926;-44
2021/01/09 09:49:29;;;;;;;;;;;4.60;70.80;;;;;;4914694;28;20338;-44
2021/01/09 09:51:56;;;;;;;;;;;4.60;70.80;;;;;;4915195;28;25270;-44
2021/01/09 09:54:30;;;;;;;;;;;4.60;70.70;;;;;;4912707;28;19926;-42
2021/01/09 09:56:57;;;;;;;;;;;4.60;70.60;;;;;;4915629;28;19927;-44
2021/01/09 09:59:26;;;;;;;;;;;4.60;70.60;;;;;;4915244;28;24043;-43
2021/01/09 10:01:59;;;;;;;;;;;4.60;70.70;;;;;;4930574;28;19936;-45
2021/01/09 10:04:28;;;;;;;;;;;4.60;70.70;;;;;;4913994;28;20024;-42
2021/01/09 10:06:55;;;;;;;;;;;4.70;70.50;;;;;;4906644;28;20414;-45
2021/01/09 10:09:22;;;;;;;;;;;4.70;70.20;;;;;;4913483;28;19965;-44
2021/01/09 10:11:49;;;;;;;;;;;4.80;69.70;;;;;;4921469;28;19933;-44
2021/01/09 10:14:22;;;;;;;;;;;4.80;69.50;;;;;;4915449;28;20298;-43
2021/01/09 10:16:49;;;;;;;;;;;4.90;69.10;;;;;;4929880;28;20016;-44
2021/01/09 10:19:18;;;;;;;;;;;5.00;68.60;;;;;;4911568;28;19930;-43
2021/01/09 10:21:45;;;;;;;;;;;5.00;68.30;;;;;;4914486;28;19926;-43
2021/01/09 10:24:11;;;;;;;;;;;5.10;68.10;;;;;;4915181;28;19936;-44
2021/01/09 10:26:38;;;;;;;;;;;5.10;67.80;;;;;;4910980;28;19941;-44
2021/01/09 10:29:05;;;;;;;;;;;5.10;67.70;;;;;;4913538;28;21280;-44
2021/01/09 10:31:32;;;;;;;;;;;5.20;67.40;;;;;;4913179;28;19965;-44
2021/01/09 10:33:58;;;;;;;;;;;5.20;67.40;;;;;;4916672;28;19926;-43
2021/01/09 10:36:29;;;;;;;;;;;5.20;67.30;;;;;;4916476;28;20027;-43
2021/01/09 10:38:56;;;;;;;;;;;5.30;67.30;;;;;;4912195;28;19930;-44
2021/01/09 10:41:23;;;;;;;;;;;5.30;67.10;;;;;;4913456;28;19938;-44
2021/01/09 10:43:49;;;;;;;;;;;5.30;67.00;;;;;;4913978;28;20359;-42
2021/01/09 10:46:22;;;;;;;;;;;5.30;67.10;;;;;;4908995;28;19926;-43
2021/01/09 10:48:48;;;;;;;;;;;5.30;67.00;;;;;;4913468;28;20406;-44
2021/01/09 10:51:18;;;;;;;;;;;5.30;66.90;;;;;;4911077;28;19992;-45
2021/01/09 10:53:44;;;;;;;;;;;5.40;66.30;;;;;;4911599;28;19930;-44
2021/01/09 10:56:10;;;;;;;;;;;5.40;66.60;;;;;;4917629;28;19926;-42
2021/01/09 10:58:37;;;;;;;;;;;5.50;66.30;;;;;;4910402;28;19956;-44
2021/01/09 11:01:06;;;;;;;;;;;5.50;66.60;;;;;;4893944;28;19933;-44
2021/01/09 11:03:35;;;;;;;;;;;5.60;66.30;;;;;;4901355;28;19934;-42
2021/01/09 11:06:04;;;;;;;;;;;5.70;66.20;;;;;;4900733;28;19934;-42
2021/01/09 11:08:30;;;;;;;;;;;5.70;66.00;;;;;;4903923;28;20068;-45
2021/01/09 11:10:57;;;;;;;;;;;5.70;65.90;;;;;;4916935;28;20424;-43
2021/01/09 11:13:23;;;;;;;;;;;5.70;65.10;;;;;;4889495;28;19941;-44
2021/01/09 11:15:50;;;;;;;;;;;5.70;65.20;;;;;;4904885;28;22440;-43
2021/01/09 11:18:16;;;;;;;;;;;5.70;65.40;;;;;;4904539;28;20294;-42
2021/01/09 11:20:50;;;;;;;;;;;5.60;65.20;;;;;;4910553;28;19933;-45
2021/01/09 11:23:17;;;;;;;;;;;5.60;65.10;;;;;;4906615;28;19934;-42
2021/01/09 11:25:44;;;;;;;;;;;5.50;65.40;;;;;;4895698;28;19930;-44
2021/01/09 11:28:11;;;;;;;;;;;5.50;65.50;;;;;;4911950;28;19925;-45
2021/01/09 11:30:38;;;;;;;;;;;5.50;65.50;;;;;;4913476;28;19934;-45
2021/01/09 11:33:04;;;;;;;;;;;5.40;65.50;;;;;;4906299;28;19933;-45
2021/01/09 11:35:31;;;;;;;;;;;5.40;65.50;;;;;;4901285;28;19934;-45
2021/01/09 11:38:16;;;;;;;;;;;5.40;65.40;;;;;;4905023;28;20299;-43
2021/01/09 11:40:42;;;;;;;;;;;5.40;65.60;;;;;;4911437;28;19945;-44
2021/01/09 11:43:11;;;;;;;;;;;5.40;65.40;;;;;;4911944;28;19965;-45
2021/01/09 11:45:37;;;;;;;;;;;5.40;65.10;;;;;;4909414;28;19937;-42
2021/01/09 11:48:05;;;;;;;;;;;5.30;65.40;;;;;;4909719;28;19934;-44
2021/01/09 11:50:34;;;;;;;;;;;5.30;65.70;;;;;;4885305;28;19934;-44
2021/01/09 11:53:17;;;;;;;;;;;5.30;65.20;;;;;;4903653;28;19926;-44
2021/01/09 11:55:44;;;;;;;;;;;5.30;65.10;;;;;;4913829;28;20073;-44
2021/01/09 11:58:14;;;;;;;;;;;5.40;64.90;;;;;;4911731;28;20316;-44
2021/01/09 12:00:40;;;;;;;;;;;5.40;64.60;;;;;;4907705;28;19965;-45
2021/01/09 12:03:07;;;;;;;;;;;5.40;64.50;;;;;;4912060;28;20146;-44
2021/01/09 12:05:33;;;;;;;;;;;5.40;64.50;;;;;;4916292;28;19930;-44
2021/01/09 12:08:03;;;;;;;;;;;5.40;64.30;;;;;;4913977;28;19935;-43
2021/01/09 12:10:30;;;;;;;;;;;5.50;64.50;;;;;;4912687;28;19937;-43
2021/01/09 12:13:16;;;;;;;;;;;5.50;64.10;;;;;;4908662;28;19934;-42
2021/01/09 12:15:46;;;;;;;;;;;5.50;63.90;;;;;;4914605;28;19989;-43
2021/01/09 12:18:12;;;;;;;;;;;5.50;64.10;;;;;;4915115;28;20012;-43
2021/01/09 12:20:39;;;;;;;;;;;5.50;64.30;;;;;;4911475;28;19953;-45
2021/01/09 12:23:05;;;;;;;;;;;5.50;63.90;;;;;;4920315;28;20394;-45
2021/01/09 12:25:31;;;;;;;;;;;5.50;63.70;;;;;;4932522;28;19933;-46
2021/01/09 12:27:59;;;;;;;;;;;5.50;63.80;;;;;;4916786;28;20322;-44
2021/01/09 12:30:26;;;;;;;;;;;5.50;63.60;;;;;;4923378;28;19969;-44
2021/01/09 12:32:52;;;;;;;;;;;5.50;63.60;;;;;;4916687;28;19941;-44
2021/01/09 12:35:19;;;;;;;;;;;5.40;63.50;;;;;;4928756;28;20476;-43
2021/01/09 12:37:46;;;;;;;;;;;5.40;63.30;;;;;;4919550;28;19933;-44
2021/01/09 12:40:12;;;;;;;;;;;5.40;63.20;;;;;;4920692;28;20441;-43
2021/01/09 12:42:39;;;;;;;;;;;5.40;63.60;;;;;;4914446;28;20699;-41
2021/01/09 12:45:07;;;;;;;;;;;5.30;63.70;;;;;;4916654;28;20087;-43
2021/01/09 12:47:34;;;;;;;;;;;5.30;63.50;;;;;;4907753;28;19927;-46
2021/01/09 12:50:01;;;;;;;;;;;5.30;63.80;;;;;;4917901;28;19932;-45
2021/01/09 12:52:29;;;;;;;;;;;5.20;63.90;;;;;;4921186;28;19934;-44
2021/01/09 12:54:57;;;;;;;;;;;5.20;63.60;;;;;;4916674;28;20083;-46
2021/01/09 12:57:23;;;;;;;;;;;5.20;63.60;;;;;;4912468;28;19934;-44
2021/01/09 12:59:50;;;;;;;;;;;5.10;63.40;;;;;;4913780;28;19933;-42
2021/01/09 13:02:16;;;;;;;;;;;5.10;63.50;;;;;;4932353;28;20017;-42
2021/01/09 13:04:42;;;;;;;;;;;5.00;63.70;;;;;;4914138;28;19941;-45
2021/01/09 13:07:08;;;;;;;;;;;5.00;63.90;;;;;;4900673;28;21983;-43
2021/01/09 13:09:35;;;;;;;;;;;5.10;64.10;;;;;;4873364;28;20390;-44
2021/01/09 13:12:01;;;;;;;;;;;5.10;64.20;;;;;;4787570;28;19926;-45
2021/01/09 13:14:28;;;;;;;;;;;5.10;64.30;;;;;;4851555;28;19926;-44
2021/01/09 13:16:55;;;;;;;;;;;5.10;64.50;;;;;;4900893;28;20068;-45
2021/01/09 13:19:22;;;;;;;;;;;5.10;64.50;;;;;;4904423;28;19930;-45
2021/01/09 13:21:53;;;;;;;;;;;5.10;64.20;;;;;;4902846;28;20298;-45
2021/01/09 13:24:40;;;;;;;;;;;5.10;64.10;;;;;;4907998;28;20386;-46
2021/01/09 13:27:08;;;;;;;;;;;5.20;64.40;;;;;;4902028;28;20020;-45
2021/01/09 13:29:34;;;;;;;;;;;5.20;64.40;;;;;;4905521;28;19926;-46
2021/01/09 13:32:04;;;;;;;;;;;5.20;64.10;;;;;;4910904;28;19936;-45
2021/01/09 13:34:31;;;;;;;;;;;5.20;64.20;;;;;;4903818;28;20422;-47
2021/01/09 13:36:58;;;;;;;;;;;5.20;64.20;;;;;;4900122;28;21257;-44
2021/01/09 13:39:26;;;;;;;;;;;5.30;64.30;;;;;;4891754;28;20362;-41
2021/01/09 13:41:52;;;;;;;;;;;5.30;64.10;;;;;;4904748;28;19930;-43
2021/01/09 13:44:22;;;;;;;;;;;5.30;64.00;;;;;;4896471;28;19981;-45
2021/01/09 13:46:48;;;;;;;;;;;5.30;63.90;;;;;;4904482;28;19934;-45
2021/01/09 13:49:14;;;;;;;;;;;5.30;63.70;;;;;;4909153;28;20398;-43
2021/01/09 13:51:41;;;;;;;;;;;5.20;63.60;;;;;;4905243;28;20324;-43
2021/01/09 13:54:08;;;;;;;;;;;5.20;63.60;;;;;;4897283;28;19934;-46
2021/01/09 13:56:35;;;;;;;;;;;5.20;63.60;;;;;;4903292;28;19936;-44
2021/01/09 13:59:05;;;;;;;;;;;5.20;63.60;;;;;;4910465;28;19930;-45
2021/01/09 14:01:34;;;;;;;;;;;5.10;63.60;;;;;;4903288;28;19934;-44
2021/01/09 14:04:01;;;;;;;;;;;5.00;63.80;;;;;;4901576;28;21442;-46
2021/01/09 14:06:28;;;;;;;;;;;5.10;63.70;;;;;;4904664;28;19934;-44
2021/01/09 14:08:55;;;;;;;;;;;5.00;63.50;;;;;;4904286;28;20462;-46
2021/01/09 14:11:22;;;;;;;;;;;5.00;63.40;;;;;;4903520;28;19926;-46
2021/01/09 14:13:49;;;;;;;;;;;5.00;63.60;;;;;;4901839;28;19934;-45
2021/01/09 14:16:24;;;;;;;;;;;5.00;64.00;;;;;;4902564;28;19933;-46
2021/01/09 14:18:52;;;;;;;;;;;5.00;63.70;;;;;;4901360;28;20031;-42
2021/01/09 14:21:18;;;;;;;;;;;4.90;63.50;;;;;;4901216;28;19926;-44
2021/01/09 14:23:47;;;;;;;;;;;4.90;63.90;;;;;;4908028;28;19937;-43
2021/01/09 14:26:14;;;;;;;;;;;5.00;64.10;;;;;;4929627;28;20294;-43
2021/01/09 14:28:41;;;;;;;;;;;5.00;64.10;;;;;;4914171;28;19937;-43
2021/01/09 14:31:08;;;;;;;;;;;5.00;63.90;;;;;;4911951;28;19934;-45
2021/01/09 14:33:36;;;;;;;;;;;5.00;63.70;;;;;;4911830;28;19984;-46
2021/01/09 14:36:02;;;;;;;;;;;5.10;63.70;;;;;;4917922;28;19936;-44